sensor_id;sensor_type;location;lat;lon;timestamp;P1;durP1;ratioP1;P2;durP2;ratioP2
45236;SDS011;30973;51.442;3.580;2022-09-01T00:01:20;3.00;;;1.25;;
45236;SDS011;30973;51.442;3.580;2022-09-01T00:03:49;5.47;;;1.30;;
45236;SDS011;30973;51.442;3.580;2022-09-01T00:06:18;3.63;;;1.13;;
45236;SDS011;30973;51.442;3.580;2022-09-01T00:08:52;3.67;;;1.33;;
45236;SDS011;30973;51.442;3.580;2022-09-01T00:11:22;3.30;;;1.23;;
45236;SDS011;30973;51.442;3.580;2022-09-01T00:13:51;4.50;;;1.45;;
45236;SDS011;30973;51.442;3.580;2022-09-01T00:16:20;3.95;;;1.20;;
45236;SDS011;30973;51.442;3.580;2022-09-01T00:18:48;4.18;;;1.10;;
45236;SDS011;30973;51.442;3.580;2022-09-01T00:21:19;2.08;;;1.20;;
45236;SDS011;30973;51.442;3.580;2022-09-01T00:23:49;5.45;;;1.42;;
45236;SDS011;30973;51.442;3.580;2022-09-01T00:26:16;3.58;;;1.30;;
45236;SDS011;30973;51.442;3.580;2022-09-01T00:28:44;3.17;;;1.27;;
45236;SDS011;30973;51.442;3.580;2022-09-01T00:31:12;2.85;;;1.48;;
45236;SDS011;30973;51.442;3.580;2022-09-01T00:33:45;3.00;;;1.35;;
45236;SDS011;30973;51.442;3.580;2022-09-01T00:36:14;2.22;;;1.30;;
45236;SDS011;30973;51.442;3.580;2022-09-01T00:38:42;3.15;;;1.20;;
45236;SDS011;30973;51.442;3.580;2022-09-01T00:41:09;3.95;;;1.40;;
45236;SDS011;30973;51.442;3.580;2022-09-01T00:43:43;5.72;;;1.38;;
45236;SDS011;30973;51.442;3.580;2022-09-01T00:46:24;4.35;;;1.10;;
45236;SDS011;30973;51.442;3.580;2022-09-01T00:49:02;2.38;;;1.23;;
45236;SDS011;30973;51.442;3.580;2022-09-01T00:51:31;3.25;;;1.20;;
45236;SDS011;30973;51.442;3.580;2022-09-01T00:54:00;3.20;;;1.30;;
45236;SDS011;30973;51.442;3.580;2022-09-01T00:56:31;6.47;;;1.10;;
45236;SDS011;30973;51.442;3.580;2022-09-01T00:59:03;2.30;;;1.30;;
45236;SDS011;30973;51.442;3.580;2022-09-01T01:01:33;5.28;;;1.30;;
45236;SDS011;30973;51.442;3.580;2022-09-01T01:04:03;2.97;;;1.15;;
45236;SDS011;30973;51.442;3.580;2022-09-01T01:06:41;3.20;;;1.23;;
45236;SDS011;30973;51.442;3.580;2022-09-01T01:09:11;2.55;;;1.38;;
45236;SDS011;30973;51.442;3.580;2022-09-01T01:11:39;2.30;;;1.40;;
45236;SDS011;30973;51.442;3.580;2022-09-01T01:14:07;1.98;;;1.38;;
45236;SDS011;30973;51.442;3.580;2022-09-01T01:16:38;2.35;;;1.40;;
45236;SDS011;30973;51.442;3.580;2022-09-01T01:19:11;5.60;;;1.45;;
45236;SDS011;30973;51.442;3.580;2022-09-01T01:22:40;3.33;;;1.20;;
45236;SDS011;30973;51.442;3.580;2022-09-01T01:28:03;2.10;;;1.27;;
45236;SDS011;30973;51.442;3.580;2022-09-01T01:30:41;9.07;;;1.35;;
45236;SDS011;30973;51.442;3.580;2022-09-01T01:33:19;3.22;;;1.23;;
45236;SDS011;30973;51.442;3.580;2022-09-01T01:35:52;2.80;;;1.23;;
45236;SDS011;30973;51.442;3.580;2022-09-01T01:38:20;3.10;;;1.40;;
45236;SDS011;30973;51.442;3.580;2022-09-01T01:40:50;5.90;;;1.40;;
45236;SDS011;30973;51.442;3.580;2022-09-01T01:43:22;2.85;;;1.20;;
45236;SDS011;30973;51.442;3.580;2022-09-01T01:45:50;3.08;;;1.20;;
45236;SDS011;30973;51.442;3.580;2022-09-01T01:48:24;3.00;;;1.35;;
45236;SDS011;30973;51.442;3.580;2022-09-01T01:50:52;2.00;;;1.20;;
45236;SDS011;30973;51.442;3.580;2022-09-01T01:53:21;3.03;;;1.40;;
45236;SDS011;30973;51.442;3.580;2022-09-01T01:55:51;3.30;;;1.40;;
45236;SDS011;30973;51.442;3.580;2022-09-01T01:58:20;4.85;;;1.35;;
45236;SDS011;30973;51.442;3.580;2022-09-01T02:00:49;2.92;;;1.30;;
45236;SDS011;30973;51.442;3.580;2022-09-01T02:03:19;4.35;;;1.40;;
45236;SDS011;30973;51.442;3.580;2022-09-01T02:05:53;3.40;;;1.50;;
45236;SDS011;30973;51.442;3.580;2022-09-01T02:08:21;3.22;;;1.52;;
45236;SDS011;30973;51.442;3.580;2022-09-01T02:10:52;3.08;;;1.48;;
45236;SDS011;30973;51.442;3.580;2022-09-01T02:13:22;2.60;;;1.48;;
45236;SDS011;30973;51.442;3.580;2022-09-01T02:16:00;3.20;;;1.38;;
45236;SDS011;30973;51.442;3.580;2022-09-01T02:18:31;2.53;;;1.40;;
45236;SDS011;30973;51.442;3.580;2022-09-01T02:21:06;2.78;;;1.30;;
45236;SDS011;30973;51.442;3.580;2022-09-01T02:23:42;2.40;;;1.25;;
45236;SDS011;30973;51.442;3.580;2022-09-01T02:26:09;3.85;;;1.55;;
45236;SDS011;30973;51.442;3.580;2022-09-01T02:28:43;2.08;;;1.30;;
45236;SDS011;30973;51.442;3.580;2022-09-01T02:31:25;3.70;;;1.42;;
45236;SDS011;30973;51.442;3.580;2022-09-01T02:33:54;3.33;;;1.30;;
45236;SDS011;30973;51.442;3.580;2022-09-01T02:36:22;3.70;;;1.55;;
45236;SDS011;30973;51.442;3.580;2022-09-01T02:38:51;3.67;;;1.50;;
45236;SDS011;30973;51.442;3.580;2022-09-01T02:41:22;2.80;;;1.10;;
45236;SDS011;30973;51.442;3.580;2022-09-01T02:43:51;5.22;;;1.60;;
45236;SDS011;30973;51.442;3.580;2022-09-01T02:46:19;1.92;;;1.40;;
45236;SDS011;30973;51.442;3.580;2022-09-01T02:48:51;3.85;;;1.60;;
45236;SDS011;30973;51.442;3.580;2022-09-01T02:51:19;2.75;;;1.50;;
45236;SDS011;30973;51.442;3.580;2022-09-01T02:53:51;3.63;;;1.60;;
45236;SDS011;30973;51.442;3.580;2022-09-01T02:56:20;2.85;;;1.65;;
45236;SDS011;30973;51.442;3.580;2022-09-01T02:58:51;2.75;;;1.58;;
45236;SDS011;30973;51.442;3.580;2022-09-01T03:01:21;3.25;;;1.95;;
45236;SDS011;30973;51.442;3.580;2022-09-01T03:03:53;2.67;;;1.40;;
45236;SDS011;30973;51.442;3.580;2022-09-01T03:06:23;1.92;;;1.30;;
45236;SDS011;30973;51.442;3.580;2022-09-01T03:08:52;2.45;;;1.30;;
45236;SDS011;30973;51.442;3.580;2022-09-01T03:11:21;4.00;;;1.52;;
45236;SDS011;30973;51.442;3.580;2022-09-01T03:13:49;4.50;;;1.33;;
45236;SDS011;30973;51.442;3.580;2022-09-01T03:16:18;4.70;;;1.60;;
45236;SDS011;30973;51.442;3.580;2022-09-01T03:18:45;5.20;;;1.38;;
45236;SDS011;30973;51.442;3.580;2022-09-01T03:21:12;2.58;;;1.67;;
45236;SDS011;30973;51.442;3.580;2022-09-01T03:23:43;4.13;;;1.60;;
45236;SDS011;30973;51.442;3.580;2022-09-01T03:26:12;4.38;;;1.35;;
45236;SDS011;30973;51.442;3.580;2022-09-01T03:28:41;2.70;;;1.58;;
45236;SDS011;30973;51.442;3.580;2022-09-01T03:31:08;4.13;;;1.70;;
45236;SDS011;30973;51.442;3.580;2022-09-01T03:33:36;3.15;;;1.60;;
45236;SDS011;30973;51.442;3.580;2022-09-01T03:36:07;5.93;;;1.60;;
45236;SDS011;30973;51.442;3.580;2022-09-01T03:38:46;3.05;;;1.40;;
45236;SDS011;30973;51.442;3.580;2022-09-01T03:41:17;5.13;;;1.77;;
45236;SDS011;30973;51.442;3.580;2022-09-01T03:43:51;4.82;;;1.88;;
45236;SDS011;30973;51.442;3.580;2022-09-01T03:46:22;2.40;;;1.70;;
45236;SDS011;30973;51.442;3.580;2022-09-01T03:48:52;3.63;;;1.60;;
45236;SDS011;30973;51.442;3.580;2022-09-01T03:51:21;2.30;;;1.40;;
45236;SDS011;30973;51.442;3.580;2022-09-01T03:53:51;2.38;;;1.60;;
45236;SDS011;30973;51.442;3.580;2022-09-01T03:56:21;2.47;;;1.40;;
45236;SDS011;30973;51.442;3.580;2022-09-01T03:58:51;4.80;;;1.77;;
45236;SDS011;30973;51.442;3.580;2022-09-01T04:01:20;3.90;;;1.73;;
45236;SDS011;30973;51.442;3.580;2022-09-01T04:03:48;4.50;;;1.70;;
45236;SDS011;30973;51.442;3.580;2022-09-01T04:06:22;4.75;;;1.92;;
45236;SDS011;30973;51.442;3.580;2022-09-01T04:08:50;2.53;;;1.65;;
45236;SDS011;30973;51.442;3.580;2022-09-01T04:11:31;3.47;;;1.80;;
45236;SDS011;30973;51.442;3.580;2022-09-01T04:13:59;2.75;;;1.60;;
45236;SDS011;30973;51.442;3.580;2022-09-01T04:16:31;3.97;;;1.80;;
45236;SDS011;30973;51.442;3.580;2022-09-01T04:19:20;3.22;;;2.00;;
45236;SDS011;30973;51.442;3.580;2022-09-01T04:21:56;2.55;;;1.60;;
45236;SDS011;30973;51.442;3.580;2022-09-01T04:27:01;5.60;;;1.88;;
45236;SDS011;30973;51.442;3.580;2022-09-01T04:29:29;4.60;;;1.73;;
45236;SDS011;30973;51.442;3.580;2022-09-01T04:31:59;3.42;;;1.58;;
45236;SDS011;30973;51.442;3.580;2022-09-01T04:34:33;4.60;;;1.63;;
45236;SDS011;30973;51.442;3.580;2022-09-01T04:37:10;2.90;;;1.50;;
45236;SDS011;30973;51.442;3.580;2022-09-01T04:39:41;5.47;;;2.00;;
45236;SDS011;30973;51.442;3.580;2022-09-01T04:42:21;3.50;;;2.00;;
45236;SDS011;30973;51.442;3.580;2022-09-01T04:44:50;3.25;;;1.80;;
45236;SDS011;30973;51.442;3.580;2022-09-01T04:47:21;2.83;;;1.63;;
45236;SDS011;30973;51.442;3.580;2022-09-01T04:50:03;4.97;;;1.50;;
45236;SDS011;30973;51.442;3.580;2022-09-01T04:52:45;3.85;;;1.70;;
45236;SDS011;30973;51.442;3.580;2022-09-01T04:55:28;3.55;;;1.80;;
45236;SDS011;30973;51.442;3.580;2022-09-01T04:57:57;4.32;;;2.00;;
45236;SDS011;30973;51.442;3.580;2022-09-01T05:00:26;4.60;;;2.03;;
45236;SDS011;30973;51.442;3.580;2022-09-01T05:03:00;5.65;;;1.90;;
45236;SDS011;30973;51.442;3.580;2022-09-01T05:05:49;4.30;;;2.00;;
45236;SDS011;30973;51.442;3.580;2022-09-01T05:08:20;5.75;;;3.22;;
45236;SDS011;30973;51.442;3.580;2022-09-01T05:10:53;3.25;;;2.00;;
45236;SDS011;30973;51.442;3.580;2022-09-01T05:13:36;3.28;;;1.65;;
45236;SDS011;30973;51.442;3.580;2022-09-01T05:16:07;4.53;;;1.83;;
45236;SDS011;30973;51.442;3.580;2022-09-01T05:18:43;2.65;;;1.63;;
45236;SDS011;30973;51.442;3.580;2022-09-01T05:21:15;2.83;;;2.00;;
45236;SDS011;30973;51.442;3.580;2022-09-01T05:23:44;4.75;;;1.90;;
45236;SDS011;30973;51.442;3.580;2022-09-01T05:26:14;5.90;;;2.47;;
45236;SDS011;30973;51.442;3.580;2022-09-01T05:28:48;3.67;;;2.20;;
45236;SDS011;30973;51.442;3.580;2022-09-01T05:31:20;4.75;;;2.08;;
45236;SDS011;30973;51.442;3.580;2022-09-01T05:33:49;5.35;;;1.90;;
45236;SDS011;30973;51.442;3.580;2022-09-01T05:36:17;3.78;;;2.03;;
45236;SDS011;30973;51.442;3.580;2022-09-01T05:38:48;4.30;;;2.60;;
45236;SDS011;30973;51.442;3.580;2022-09-01T05:41:18;4.35;;;2.33;;
45236;SDS011;30973;51.442;3.580;2022-09-01T05:43:47;4.82;;;2.45;;
45236;SDS011;30973;51.442;3.580;2022-09-01T05:46:23;5.10;;;2.40;;
45236;SDS011;30973;51.442;3.580;2022-09-01T05:48:55;3.78;;;1.90;;
45236;SDS011;30973;51.442;3.580;2022-09-01T05:51:24;4.93;;;2.05;;
45236;SDS011;30973;51.442;3.580;2022-09-01T05:54:10;5.70;;;2.25;;
45236;SDS011;30973;51.442;3.580;2022-09-01T05:56:38;4.40;;;2.30;;
45236;SDS011;30973;51.442;3.580;2022-09-01T05:59:12;3.55;;;1.92;;
45236;SDS011;30973;51.442;3.580;2022-09-01T06:01:50;4.85;;;1.98;;
45236;SDS011;30973;51.442;3.580;2022-09-01T06:04:20;3.72;;;2.20;;
45236;SDS011;30973;51.442;3.580;2022-09-01T06:06:49;3.30;;;2.00;;
45236;SDS011;30973;51.442;3.580;2022-09-01T06:09:41;4.57;;;2.13;;
45236;SDS011;30973;51.442;3.580;2022-09-01T06:12:15;7.35;;;2.50;;
45236;SDS011;30973;51.442;3.580;2022-09-01T06:14:45;7.20;;;2.45;;
45236;SDS011;30973;51.442;3.580;2022-09-01T06:17:15;5.75;;;2.22;;
45236;SDS011;30973;51.442;3.580;2022-09-01T06:19:45;4.32;;;2.38;;
45236;SDS011;30973;51.442;3.580;2022-09-01T06:22:13;7.68;;;2.80;;
45236;SDS011;30973;51.442;3.580;2022-09-01T06:24:41;6.78;;;2.58;;
45236;SDS011;30973;51.442;3.580;2022-09-01T06:27:10;4.97;;;2.83;;
45236;SDS011;30973;51.442;3.580;2022-09-01T06:29:38;5.57;;;2.78;;
45236;SDS011;30973;51.442;3.580;2022-09-01T06:32:07;5.15;;;2.45;;
45236;SDS011;30973;51.442;3.580;2022-09-01T06:34:39;5.18;;;2.78;;
45236;SDS011;30973;51.442;3.580;2022-09-01T06:37:09;4.60;;;2.60;;
45236;SDS011;30973;51.442;3.580;2022-09-01T06:39:41;11.07;;;2.88;;
45236;SDS011;30973;51.442;3.580;2022-09-01T06:42:09;10.40;;;2.55;;
45236;SDS011;30973;51.442;3.580;2022-09-01T06:44:56;5.93;;;2.60;;
45236;SDS011;30973;51.442;3.580;2022-09-01T06:47:23;6.85;;;2.90;;
45236;SDS011;30973;51.442;3.580;2022-09-01T06:49:54;4.40;;;2.63;;
45236;SDS011;30973;51.442;3.580;2022-09-01T06:52:26;7.43;;;2.45;;
45236;SDS011;30973;51.442;3.580;2022-09-01T06:55:14;5.85;;;2.97;;
45236;SDS011;30973;51.442;3.580;2022-09-01T06:57:42;6.80;;;2.55;;
45236;SDS011;30973;51.442;3.580;2022-09-01T07:00:42;4.13;;;2.38;;
45236;SDS011;30973;51.442;3.580;2022-09-01T07:03:11;12.15;;;3.20;;
45236;SDS011;30973;51.442;3.580;2022-09-01T07:06:08;6.22;;;3.05;;
45236;SDS011;30973;51.442;3.580;2022-09-01T07:09:26;5.30;;;3.15;;
45236;SDS011;30973;51.442;3.580;2022-09-01T07:12:53;5.95;;;3.17;;
45236;SDS011;30973;51.442;3.580;2022-09-01T07:15:32;10.32;;;3.30;;
45236;SDS011;30973;51.442;3.580;2022-09-01T07:18:24;7.25;;;3.53;;
45236;SDS011;30973;51.442;3.580;2022-09-01T07:20:53;5.50;;;3.40;;
45236;SDS011;30973;51.442;3.580;2022-09-01T07:23:41;7.10;;;3.05;;
45236;SDS011;30973;51.442;3.580;2022-09-01T07:26:30;6.85;;;3.33;;
45236;SDS011;30973;51.442;3.580;2022-09-01T07:29:02;7.03;;;3.33;;
45236;SDS011;30973;51.442;3.580;2022-09-01T07:31:51;7.40;;;3.22;;
45236;SDS011;30973;51.442;3.580;2022-09-01T07:34:41;4.68;;;3.22;;
45236;SDS011;30973;51.442;3.580;2022-09-01T07:37:15;6.32;;;3.58;;
45236;SDS011;30973;51.442;3.580;2022-09-01T07:40:05;6.53;;;3.50;;
45236;SDS011;30973;51.442;3.580;2022-09-01T07:43:16;9.13;;;3.50;;
45236;SDS011;30973;51.442;3.580;2022-09-01T07:46:10;7.65;;;3.40;;
45236;SDS011;30973;51.442;3.580;2022-09-01T07:48:59;5.95;;;3.95;;
45236;SDS011;30973;51.442;3.580;2022-09-01T07:51:49;6.63;;;3.83;;
45236;SDS011;30973;51.442;3.580;2022-09-01T07:54:18;7.95;;;3.90;;
45236;SDS011;30973;51.442;3.580;2022-09-01T07:56:50;5.68;;;3.20;;
45236;SDS011;30973;51.442;3.580;2022-09-01T07:59:22;8.32;;;4.20;;
45236;SDS011;30973;51.442;3.580;2022-09-01T08:01:56;5.32;;;3.80;;
45236;SDS011;30973;51.442;3.580;2022-09-01T08:04:23;5.78;;;3.80;;
45236;SDS011;30973;51.442;3.580;2022-09-01T08:06:53;11.02;;;3.88;;
45236;SDS011;30973;51.442;3.580;2022-09-01T08:09:21;11.02;;;4.03;;
45236;SDS011;30973;51.442;3.580;2022-09-01T08:12:06;9.17;;;4.30;;
45236;SDS011;30973;51.442;3.580;2022-09-01T08:14:38;7.03;;;4.05;;
45236;SDS011;30973;51.442;3.580;2022-09-01T08:17:06;6.47;;;4.05;;
45236;SDS011;30973;51.442;3.580;2022-09-01T08:19:56;5.22;;;3.95;;
45236;SDS011;30973;51.442;3.580;2022-09-01T08:22:43;7.32;;;4.18;;
45236;SDS011;30973;51.442;3.580;2022-09-01T08:25:16;6.50;;;4.40;;
45236;SDS011;30973;51.442;3.580;2022-09-01T08:27:52;7.43;;;4.90;;
45236;SDS011;30973;51.442;3.580;2022-09-01T08:30:25;8.70;;;4.65;;
45236;SDS011;30973;51.442;3.580;2022-09-01T08:32:54;8.88;;;4.10;;
45236;SDS011;30973;51.442;3.580;2022-09-01T08:35:22;8.13;;;4.20;;
45236;SDS011;30973;51.442;3.580;2022-09-01T08:37:50;6.50;;;4.35;;
45236;SDS011;30973;51.442;3.580;2022-09-01T08:40:18;7.40;;;4.43;;
45236;SDS011;30973;51.442;3.580;2022-09-01T08:56:37;7.53;;;5.30;;
45236;SDS011;30973;51.442;3.580;2022-09-01T08:59:05;10.65;;;5.45;;
45236;SDS011;30973;51.442;3.580;2022-09-01T09:04:51;7.55;;;5.05;;
45236;SDS011;30973;51.442;3.580;2022-09-01T09:21:52;5.72;;;4.20;;
45236;SDS011;30973;51.442;3.580;2022-09-01T09:29:47;14.45;;;5.45;;
45236;SDS011;30973;51.442;3.580;2022-09-01T09:32:16;8.20;;;4.70;;
45236;SDS011;30973;51.442;3.580;2022-09-01T09:34:49;8.38;;;4.80;;
45236;SDS011;30973;51.442;3.580;2022-09-01T09:40:02;5.95;;;4.80;;
45236;SDS011;30973;51.442;3.580;2022-09-01T09:42:40;7.90;;;4.93;;
45236;SDS011;30973;51.442;3.580;2022-09-01T09:48:43;7.40;;;4.53;;
45236;SDS011;30973;51.442;3.580;2022-09-01T09:51:03;7.35;;;4.43;;
45236;SDS011;30973;51.442;3.580;2022-09-01T09:53:48;10.30;;;4.90;;
45236;SDS011;30973;51.442;3.580;2022-09-01T09:56:17;9.40;;;4.28;;
45236;SDS011;30973;51.442;3.580;2022-09-01T09:58:47;7.82;;;4.57;;
45236;SDS011;30973;51.442;3.580;2022-09-01T10:03:51;9.43;;;4.28;;
45236;SDS011;30973;51.442;3.580;2022-09-01T10:09:45;5.22;;;3.88;;
45236;SDS011;30973;51.442;3.580;2022-09-01T10:11:48;5.43;;;3.67;;
45236;SDS011;30973;51.442;3.580;2022-09-01T10:14:19;5.97;;;2.92;;
45236;SDS011;30973;51.442;3.580;2022-09-01T10:17:11;6.82;;;3.13;;
45236;SDS011;30973;51.442;3.580;2022-09-01T10:22:31;7.25;;;3.60;;
45236;SDS011;30973;51.442;3.580;2022-09-01T10:24:59;5.03;;;3.30;;
45236;SDS011;30973;51.442;3.580;2022-09-01T10:27:28;7.55;;;3.75;;
45236;SDS011;30973;51.442;3.580;2022-09-01T10:32:56;10.52;;;4.95;;
45236;SDS011;30973;51.442;3.580;2022-09-01T10:35:40;5.63;;;4.35;;
45236;SDS011;30973;51.442;3.580;2022-09-01T10:38:15;10.37;;;4.47;;
45236;SDS011;30973;51.442;3.580;2022-09-01T10:40:46;6.93;;;4.55;;
45236;SDS011;30973;51.442;3.580;2022-09-01T10:48:52;6.97;;;3.88;;
45236;SDS011;30973;51.442;3.580;2022-09-01T10:54:01;6.95;;;3.95;;
45236;SDS011;30973;51.442;3.580;2022-09-01T10:56:46;9.48;;;3.35;;
45236;SDS011;30973;51.442;3.580;2022-09-01T11:02:04;6.72;;;3.25;;
45236;SDS011;30973;51.442;3.580;2022-09-01T11:07:30;6.68;;;3.63;;
45236;SDS011;30973;51.442;3.580;2022-09-01T11:10:25;4.68;;;3.50;;
45236;SDS011;30973;51.442;3.580;2022-09-01T11:13:05;9.88;;;3.40;;
45236;SDS011;30973;51.442;3.580;2022-09-01T11:15:48;5.75;;;3.30;;
45236;SDS011;30973;51.442;3.580;2022-09-01T11:18:23;4.70;;;2.88;;
45236;SDS011;30973;51.442;3.580;2022-09-01T11:20:53;8.57;;;3.20;;
45236;SDS011;30973;51.442;3.580;2022-09-01T11:23:24;6.70;;;3.80;;
45236;SDS011;30973;51.442;3.580;2022-09-01T11:32:23;6.65;;;3.42;;
45236;SDS011;30973;51.442;3.580;2022-09-01T11:34:57;7.75;;;3.35;;
45236;SDS011;30973;51.442;3.580;2022-09-01T11:37:28;8.15;;;3.88;;
45236;SDS011;30973;51.442;3.580;2022-09-01T11:40:00;6.88;;;3.40;;
45236;SDS011;30973;51.442;3.580;2022-09-01T11:42:37;5.22;;;3.60;;
45236;SDS011;30973;51.442;3.580;2022-09-01T11:47:57;5.97;;;3.38;;
45236;SDS011;30973;51.442;3.580;2022-09-01T11:50:31;7.68;;;3.53;;
45236;SDS011;30973;51.442;3.580;2022-09-01T11:53:03;8.98;;;3.58;;
45236;SDS011;30973;51.442;3.580;2022-09-01T11:55:35;6.10;;;3.38;;
45236;SDS011;30973;51.442;3.580;2022-09-01T11:58:08;8.98;;;3.90;;
45236;SDS011;30973;51.442;3.580;2022-09-01T12:04:22;5.20;;;3.25;;
45236;SDS011;30973;51.442;3.580;2022-09-01T12:07:12;8.82;;;4.00;;
45236;SDS011;30973;51.442;3.580;2022-09-01T12:09:49;6.00;;;3.35;;
45236;SDS011;30973;51.442;3.580;2022-09-01T12:14:56;5.45;;;2.75;;
45236;SDS011;30973;51.442;3.580;2022-09-01T12:17:32;4.25;;;2.90;;
45236;SDS011;30973;51.442;3.580;2022-09-01T12:22:54;7.38;;;3.55;;
45236;SDS011;30973;51.442;3.580;2022-09-01T12:25:23;8.68;;;3.20;;
45236;SDS011;30973;51.442;3.580;2022-09-01T12:27:53;6.80;;;3.10;;
45236;SDS011;30973;51.442;3.580;2022-09-01T12:30:22;6.80;;;3.33;;
45236;SDS011;30973;51.442;3.580;2022-09-01T12:32:52;4.50;;;2.97;;
45236;SDS011;30973;51.442;3.580;2022-09-01T12:35:39;4.15;;;3.38;;
45236;SDS011;30973;51.442;3.580;2022-09-01T12:40:48;9.02;;;3.63;;
45236;SDS011;30973;51.442;3.580;2022-09-01T12:45:55;6.55;;;3.47;;
45236;SDS011;30973;51.442;3.580;2022-09-01T12:48:30;5.72;;;3.00;;
45236;SDS011;30973;51.442;3.580;2022-09-01T12:53:59;5.53;;;2.92;;
45236;SDS011;30973;51.442;3.580;2022-09-01T12:56:31;6.13;;;2.83;;
45236;SDS011;30973;51.442;3.580;2022-09-01T13:04:54;6.47;;;3.10;;
45236;SDS011;30973;51.442;3.580;2022-09-01T13:07:41;4.88;;;3.00;;
45236;SDS011;30973;51.442;3.580;2022-09-01T13:10:08;7.43;;;2.53;;
45236;SDS011;30973;51.442;3.580;2022-09-01T13:12:38;5.40;;;3.00;;
45236;SDS011;30973;51.442;3.580;2022-09-01T13:15:11;5.65;;;3.30;;
45236;SDS011;30973;51.442;3.580;2022-09-01T13:17:40;9.68;;;3.42;;
45236;SDS011;30973;51.442;3.580;2022-09-01T13:20:07;8.90;;;3.22;;
45236;SDS011;30973;51.442;3.580;2022-09-01T13:22:38;4.13;;;2.80;;
45236;SDS011;30973;51.442;3.580;2022-09-01T13:25:07;5.20;;;3.08;;
45236;SDS011;30973;51.442;3.580;2022-09-01T13:27:36;6.38;;;3.50;;
45236;SDS011;30973;51.442;3.580;2022-09-01T13:30:05;5.88;;;3.50;;
45236;SDS011;30973;51.442;3.580;2022-09-01T13:32:33;8.60;;;3.47;;
45236;SDS011;30973;51.442;3.580;2022-09-01T13:35:00;5.90;;;3.63;;
45236;SDS011;30973;51.442;3.580;2022-09-01T13:37:28;4.57;;;3.13;;
45236;SDS011;30973;51.442;3.580;2022-09-01T13:39:56;5.82;;;3.60;;
45236;SDS011;30973;51.442;3.580;2022-09-01T13:42:23;4.53;;;2.58;;
45236;SDS011;30973;51.442;3.580;2022-09-01T13:44:54;5.43;;;3.40;;
45236;SDS011;30973;51.442;3.580;2022-09-01T13:47:22;6.30;;;3.53;;
45236;SDS011;30973;51.442;3.580;2022-09-01T13:49:55;7.70;;;3.08;;
45236;SDS011;30973;51.442;3.580;2022-09-01T13:52:33;4.63;;;2.90;;
45236;SDS011;30973;51.442;3.580;2022-09-01T13:55:00;5.10;;;2.78;;
45236;SDS011;30973;51.442;3.580;2022-09-01T13:57:27;6.88;;;3.22;;
45236;SDS011;30973;51.442;3.580;2022-09-01T14:00:02;4.72;;;3.00;;
45236;SDS011;30973;51.442;3.580;2022-09-01T14:02:39;8.73;;;3.20;;
45236;SDS011;30973;51.442;3.580;2022-09-01T14:05:08;8.23;;;3.30;;
45236;SDS011;30973;51.442;3.580;2022-09-01T14:07:36;5.03;;;2.97;;
45236;SDS011;30973;51.442;3.580;2022-09-01T14:10:03;7.07;;;3.40;;
45236;SDS011;30973;51.442;3.580;2022-09-01T14:12:32;6.20;;;3.10;;
45236;SDS011;30973;51.442;3.580;2022-09-01T14:15:00;7.70;;;3.47;;
45236;SDS011;30973;51.442;3.580;2022-09-01T14:17:48;6.95;;;3.15;;
45236;SDS011;30973;51.442;3.580;2022-09-01T14:20:21;6.53;;;3.30;;
45236;SDS011;30973;51.442;3.580;2022-09-01T14:22:51;5.50;;;3.30;;
45236;SDS011;30973;51.442;3.580;2022-09-01T14:25:19;8.15;;;3.38;;
45236;SDS011;30973;51.442;3.580;2022-09-01T14:27:47;5.35;;;3.20;;
45236;SDS011;30973;51.442;3.580;2022-09-01T14:30:16;7.13;;;2.88;;
45236;SDS011;30973;51.442;3.580;2022-09-01T14:32:51;4.95;;;2.70;;
45236;SDS011;30973;51.442;3.580;2022-09-01T14:35:20;6.40;;;2.80;;
45236;SDS011;30973;51.442;3.580;2022-09-01T14:37:52;4.82;;;2.65;;
45236;SDS011;30973;51.442;3.580;2022-09-01T14:40:20;5.00;;;2.38;;
45236;SDS011;30973;51.442;3.580;2022-09-01T14:42:50;6.65;;;2.47;;
45236;SDS011;30973;51.442;3.580;2022-09-01T14:45:20;3.97;;;2.20;;
45236;SDS011;30973;51.442;3.580;2022-09-01T14:47:50;4.28;;;2.35;;
45236;SDS011;30973;51.442;3.580;2022-09-01T14:50:19;5.97;;;2.60;;
45236;SDS011;30973;51.442;3.580;2022-09-01T14:52:50;4.00;;;2.30;;
45236;SDS011;30973;51.442;3.580;2022-09-01T14:55:23;4.53;;;1.90;;
45236;SDS011;30973;51.442;3.580;2022-09-01T14:57:52;2.85;;;1.75;;
45236;SDS011;30973;51.442;3.580;2022-09-01T15:00:21;2.85;;;1.70;;
45236;SDS011;30973;51.442;3.580;2022-09-01T15:02:50;4.25;;;2.33;;
45236;SDS011;30973;51.442;3.580;2022-09-01T15:05:19;5.53;;;2.10;;
45236;SDS011;30973;51.442;3.580;2022-09-01T15:07:47;3.35;;;1.90;;
45236;SDS011;30973;51.442;3.580;2022-09-01T15:10:15;4.35;;;1.70;;
45236;SDS011;30973;51.442;3.580;2022-09-01T15:12:57;4.45;;;1.98;;
45236;SDS011;30973;51.442;3.580;2022-09-01T15:15:27;2.72;;;1.60;;
45236;SDS011;30973;51.442;3.580;2022-09-01T15:17:55;4.65;;;1.70;;
45236;SDS011;30973;51.442;3.580;2022-09-01T15:20:24;3.20;;;1.75;;
45236;SDS011;30973;51.442;3.580;2022-09-01T15:23:18;4.25;;;2.22;;
45236;SDS011;30973;51.442;3.580;2022-09-01T15:25:47;3.35;;;1.88;;
45236;SDS011;30973;51.442;3.580;2022-09-01T15:28:17;2.78;;;1.70;;
45236;SDS011;30973;51.442;3.580;2022-09-01T15:30:45;4.50;;;1.60;;
45236;SDS011;30973;51.442;3.580;2022-09-01T15:33:12;4.75;;;1.80;;
45236;SDS011;30973;51.442;3.580;2022-09-01T15:35:42;3.03;;;1.70;;
45236;SDS011;30973;51.442;3.580;2022-09-01T15:38:11;2.33;;;1.52;;
45236;SDS011;30973;51.442;3.580;2022-09-01T15:40:44;3.42;;;1.80;;
45236;SDS011;30973;51.442;3.580;2022-09-01T15:43:23;2.13;;;1.65;;
45236;SDS011;30973;51.442;3.580;2022-09-01T15:45:51;3.38;;;1.80;;
45236;SDS011;30973;51.442;3.580;2022-09-01T15:48:19;3.83;;;1.50;;
45236;SDS011;30973;51.442;3.580;2022-09-01T15:50:46;5.78;;;1.80;;
45236;SDS011;30973;51.442;3.580;2022-09-01T15:53:14;3.63;;;1.60;;
45236;SDS011;30973;51.442;3.580;2022-09-01T15:55:42;4.90;;;2.00;;
45236;SDS011;30973;51.442;3.580;2022-09-01T15:58:13;4.97;;;1.67;;
45236;SDS011;30973;51.442;3.580;2022-09-01T16:00:42;2.50;;;1.30;;
45236;SDS011;30973;51.442;3.580;2022-09-01T16:03:10;4.45;;;1.65;;
45236;SDS011;30973;51.442;3.580;2022-09-01T16:05:38;3.03;;;1.60;;
45236;SDS011;30973;51.442;3.580;2022-09-01T16:08:07;1.92;;;1.48;;
45236;SDS011;30973;51.442;3.580;2022-09-01T16:10:37;5.13;;;1.80;;
45236;SDS011;30973;51.442;3.580;2022-09-01T16:13:05;4.20;;;1.65;;
45236;SDS011;30973;51.442;3.580;2022-09-01T16:15:33;4.05;;;1.70;;
45236;SDS011;30973;51.442;3.580;2022-09-01T16:18:18;2.92;;;1.50;;
45236;SDS011;30973;51.442;3.580;2022-09-01T16:20:53;5.53;;;1.80;;
45236;SDS011;30973;51.442;3.580;2022-09-01T16:23:42;4.32;;;1.60;;
45236;SDS011;30973;51.442;3.580;2022-09-01T16:26:15;2.88;;;1.60;;
45236;SDS011;30973;51.442;3.580;2022-09-01T16:28:47;2.55;;;1.40;;
45236;SDS011;30973;51.442;3.580;2022-09-01T16:31:22;4.95;;;1.23;;
45236;SDS011;30973;51.442;3.580;2022-09-01T16:33:52;2.33;;;1.25;;
45236;SDS011;30973;51.442;3.580;2022-09-01T16:44:48;5.55;;;1.20;;
45236;SDS011;30973;51.442;3.580;2022-09-01T17:04:00;3.85;;;1.48;;
45236;SDS011;30973;51.442;3.580;2022-09-01T17:06:33;2.97;;;1.40;;
45236;SDS011;30973;51.442;3.580;2022-09-01T17:11:52;2.95;;;1.38;;
45236;SDS011;30973;51.442;3.580;2022-09-01T17:14:39;4.80;;;1.95;;
45236;SDS011;30973;51.442;3.580;2022-09-01T17:17:15;4.40;;;1.48;;
45236;SDS011;30973;51.442;3.580;2022-09-01T17:19:47;3.03;;;1.50;;
45236;SDS011;30973;51.442;3.580;2022-09-01T17:22:18;1.95;;;1.10;;
45236;SDS011;30973;51.442;3.580;2022-09-01T17:24:48;3.22;;;1.38;;
45236;SDS011;30973;51.442;3.580;2022-09-01T17:29:54;4.30;;;1.33;;
45236;SDS011;30973;51.442;3.580;2022-09-01T17:35:24;2.65;;;1.10;;
45236;SDS011;30973;51.442;3.580;2022-09-01T17:46:44;9.57;;;1.42;;
45236;SDS011;30973;51.442;3.580;2022-09-01T17:52:35;3.03;;;1.20;;
45236;SDS011;30973;51.442;3.580;2022-09-01T17:58:15;2.33;;;0.93;;